^^
Datos históricos de la estación: Murcia-Puente Tocinos
Diario Informe para Diciembre 02, 2021 Unidades:  Ambas    Ingés   Métrico
Diario Semanal Mensual Anual
  Máxima: Mínima: Promedio:
Temperatura: 59.4 °F /  15.2 °C 50.4 °F /  10.2 °C 54.5 °F /  12.5 °C
Punto de rocio: 47.1 °F /  8.4 °C 30.4 °F /  -0.9 °C 39.4 °F /  4.1 °C
Humedad: 88% 41% 59%
Velocidad viento: 16.3mph /  26.2km/h - 8.4mph /  13.6km/h
Racha viento: 29.1mph /  46.8km/h - -
Viento- - Oeste
Presión: 30 in /  1017.2 hPa 29.8 in /  1008.3 hPa -
Precipitación: 0.12 in /  3.1 mm    
 
 
Tabla de datos para Diciembre 02, 2021
Hora Temperatura Punto de rocio Presión Viento Velocidad viento Racha viento Humedad Intensidad lluvia(por hora) Nubes
00:04 54.9 °F /  12.7 °C 41 °F /  5 °C 29.9in /  1011.9hPa North 1.4mph /  2.3km/h 4.6mph /  7.4km/h 59.5% 0in /  0.0mm
00:09 54.5 °F /  12.5 °C 41 °F /  5 °C 29.9in /  1011.9hPa North 1.6mph /  2.5km/h 3.5mph /  5.6km/h 60% 0in /  0.0mm
00:14 54.3 °F /  12.4 °C 40.6 °F /  4.8 °C 29.9in /  1011.9hPa NO 2.4mph /  3.9km/h 3.6mph /  5.8km/h 60% 0in /  0.0mm
00:19 54.1 °F /  12.3 °C 41 °F /  5 °C 29.9in /  1011.8hPa NNO 2.4mph /  3.9km/h 5.2mph /  8.4km/h 60.9% 0in /  0.0mm
00:24 54 °F /  12.2 °C 40.8 °F /  4.9 °C 29.9in /  1011.8hPa NNO 2.4mph /  3.9km/h 4.6mph /  7.4km/h 61.4% 0in /  0.0mm
00:29 53.6 °F /  12 °C 40.8 °F /  4.9 °C 29.9in /  1011.8hPa NO 2.4mph /  3.9km/h 4.6mph /  7.4km/h 62.1% 0in /  0.0mm
00:34 53.4 °F /  11.9 °C 41.2 °F /  5.1 °C 29.9in /  1011.6hPa Oeste 2.4mph /  3.9km/h 4.6mph /  7.4km/h 63% 0in /  0.0mm
00:39 53.6 °F /  12 °C 41 °F /  5 °C 29.9in /  1011.6hPa ONO 2.5mph /  4km/h 4.6mph /  7.4km/h 62.4% 0in /  0.0mm
00:44 54 °F /  12.2 °C 41 °F /  5 °C 29.9in /  1011.6hPa ONO 2.9mph /  4.7km/h 3.5mph /  5.6km/h 61.6% 0in /  0.0mm
00:49 54.3 °F /  12.4 °C 41 °F /  5 °C 29.9in /  1011.3hPa SO 2.8mph /  4.5km/h 4.7mph /  7.6km/h 60.5% 0in /  0.0mm
00:54 54.9 °F /  12.7 °C 41 °F /  5 °C 29.9in /  1011.3hPa SSO 2.4mph /  3.9km/h 5.8mph /  9.3km/h 59.4% 0in /  0.0mm
00:59 55.2 °F /  12.9 °C 41.2 °F /  5.1 °C 29.9in /  1011.3hPa Sur 2.7mph /  4.3km/h 4.6mph /  7.4km/h 59% 0in /  0.0mm
01:04 55.2 °F /  12.9 °C 41.2 °F /  5.1 °C 29.9in /  1010.9hPa SE 3.6mph /  5.8km/h 4.6mph /  7.4km/h 59% 0in /  0.0mm
01:09 55 °F /  12.8 °C 41.2 °F /  5.1 °C 29.9in /  1010.9hPa SSE 3.3mph /  5.3km/h 7.4mph /  11.9km/h 59.5% 0in /  0.0mm
01:14 54.5 °F /  12.5 °C 41 °F /  5 °C 29.9in /  1010.9hPa Sur 1.8mph /  2.9km/h 6.9mph /  11.1km/h 60.6% 0in /  0.0mm
01:19 54 °F /  12.2 °C 41.2 °F /  5.1 °C 29.8in /  1010.7hPa SSO 2.1mph /  3.3km/h 4.6mph /  7.4km/h 61.9% 0in /  0.0mm
01:24 53.6 °F /  12 °C 41.4 °F /  5.2 °C 29.8in /  1010.7hPa SO 3.1mph /  5km/h 3.5mph /  5.6km/h 63% 0in /  0.0mm
01:29 53.4 °F /  11.9 °C 41.2 °F /  5.1 °C 29.8in /  1010.7hPa SO 2.8mph /  4.5km/h 1.4mph /  2.3km/h 63.5% 0in /  0.0mm
01:34 53.2 °F /  11.8 °C 41.4 °F /  5.2 °C 29.8in /  1010.4hPa SO 1.4mph /  2.3km/h 4.6mph /  7.4km/h 64% 0in /  0.0mm
01:39 53.1 °F /  11.7 °C 41.5 °F /  5.3 °C 29.8in /  1010.4hPa NO 1.5mph /  2.4km/h 5.8mph /  9.3km/h 64.9% 0in /  0.0mm
01:44 52.3 °F /  11.3 °C 41.4 °F /  5.2 °C 29.8in /  1010.4hPa NNO 2mph /  3.2km/h 7.6mph /  12.2km/h 65.8% 0in /  0.0mm
01:49 51.8 °F /  11 °C 41.2 °F /  5.1 °C 29.8in /  1010.3hPa NO 2.4mph /  3.9km/h 8.1mph /  13km/h 67% 0in /  0.0mm
01:54 51.6 °F /  10.9 °C 41.4 °F /  5.2 °C 29.8in /  1010.3hPa NO 4.3mph /  6.9km/h 6.2mph /  10km/h 67.8% 0in /  0.0mm
01:59 51.8 °F /  11 °C 41.5 °F /  5.3 °C 29.8in /  1010.4hPa NO 4.4mph /  7.1km/h 9.7mph /  15.6km/h 68% 0in /  0.0mm
02:04 52.5 °F /  11.4 °C 43 °F /  6.1 °C 29.8in /  1010.4hPa NO 4.7mph /  7.6km/h 17.5mph /  28.2km/h 70% 0in /  0.0mm
02:09 53.6 °F /  12 °C 44.8 °F /  7.1 °C 29.8in /  1010.4hPa ONO 5.6mph /  9km/h 21.9mph /  35.2km/h 71.9% 0in /  0.0mm
02:14 54.3 °F /  12.4 °C 45.9 °F /  7.7 °C 29.8in /  1010.4hPa ONO 10mph /  16.1km/h 21.3mph /  34.3km/h 73% 0in /  0.0mm
02:19 54.3 °F /  12.4 °C 46 °F /  7.8 °C 29.8in /  1010.4hPa ONO 10.2mph /  16.4km/h 19.6mph /  31.5km/h 73.5% 0in /  0.0mm
02:24 54.1 °F /  12.3 °C 46 °F /  7.8 °C 29.8in /  1010.4hPa ONO 11.2mph /  18km/h 19mph /  30.6km/h 74.5% 0.01in /  0.3mm
02:29 53.6 °F /  12 °C 46 °F /  7.8 °C 29.8in /  1010.5hPa ONO 11.2mph /  18.1km/h 19.7mph /  31.7km/h 75.5% 0.01in /  0.3mm
02:34 53.4 °F /  11.9 °C 46 °F /  7.8 °C 29.8in /  1010.5hPa ONO 11.4mph /  18.3km/h 18.4mph /  29.6km/h 76.3% 0.01in /  0.3mm
02:39 53.2 °F /  11.8 °C 46.2 °F /  7.9 °C 29.8in /  1010.5hPa ONO 11mph /  17.7km/h 13.8mph /  22.2km/h 77.4% 0.03in /  0.8mm
02:44 52.9 °F /  11.6 °C 46.4 °F /  8 °C 29.8in /  1010.6hPa ONO 9.2mph /  14.8km/h 13mph /  20.9km/h 78.6% 0.03in /  0.8mm
02:49 52.5 °F /  11.4 °C 46.2 °F /  7.9 °C 29.8in /  1010.6hPa ONO 9mph /  14.5km/h 15mph /  24.1km/h 79% 0.03in /  0.8mm
02:54 52.5 °F /  11.4 °C 46.4 °F /  8 °C 29.8in /  1010.6hPa Oeste 8.1mph /  13km/h 9.2mph /  14.8km/h 79.4% 0.05in /  1.3mm
02:59 52.3 °F /  11.3 °C 46.4 °F /  8 °C 29.8in /  1010.6hPa OSO 7.3mph /  11.8km/h 5.8mph /  9.3km/h 80% 0.05in /  1.3mm
03:04 52.2 °F /  11.2 °C 46.4 °F /  8 °C 29.8in /  1010.5hPa SO 4.7mph /  7.6km/h 6.2mph /  10km/h 80.6% 0.05in /  1.3mm
03:09 52.2 °F /  11.2 °C 46.6 °F /  8.1 °C 29.8in /  1010.5hPa SO 4.5mph /  7.3km/h 5.8mph /  9.3km/h 81% 0.06in /  1.5mm
03:14 52.2 °F /  11.2 °C 46.4 °F /  8 °C 29.8in /  1010.5hPa SSO 3.6mph /  5.8km/h 6.9mph /  11.1km/h 81% 0.07in /  1.8mm
03:19 52 °F /  11.1 °C 46.6 °F /  8.1 °C 29.8in /  1010.4hPa Sur 3.7mph /  5.9km/h 6.9mph /  11.1km/h 81.8% 0.08in /  2.0mm
03:24 52 °F /  11.1 °C 46.8 °F /  8.2 °C 29.8in /  1010.4hPa Sur 4mph /  6.4km/h 6.9mph /  11.1km/h 82.4% 0.08in /  2.0mm
03:29 51.8 °F /  11 °C 46.9 °F /  8.3 °C 29.8in /  1010.4hPa Sur 4.1mph /  6.6km/h 6.9mph /  11.1km/h 83.5% 0.07in /  1.7mm
03:34 51.4 °F /  10.8 °C 46.9 °F /  8.3 °C 29.8in /  1010.4hPa SSE 4.7mph /  7.6km/h 9.2mph /  14.8km/h 84.5% 0.08in /  2.0mm
03:39 51.3 °F /  10.7 °C 47.1 °F /  8.4 °C 29.8in /  1010.4hPa Sur 4.9mph /  7.9km/h 10.4mph /  16.7km/h 85.3% 0.06in /  1.5mm
03:44 51.3 °F /  10.7 °C 47.1 °F /  8.4 °C 29.8in /  1010.4hPa Sur 5.9mph /  9.5km/h 11.8mph /  19km/h 86% 0.07in /  1.8mm
03:49 51.1 °F /  10.6 °C 46.9 °F /  8.3 °C 29.8in /  1010.1hPa Sur 6.2mph /  10km/h 11.5mph /  18.5km/h 86% 0.07in /  1.8mm
03:54 51.1 °F /  10.6 °C 47.1 °F /  8.4 °C 29.8in /  1010.1hPa Sur 7.6mph /  12.2km/h 11.5mph /  18.5km/h 86.6% 0.08in /  2.0mm
03:59 50.7 °F /  10.4 °C 47.1 °F /  8.4 °C 29.8in /  1010.1hPa SSE 7.7mph /  12.4km/h 11.5mph /  18.5km/h 87% 0.06in /  1.5mm
04:04 50.7 °F /  10.4 °C 46.9 °F /  8.3 °C 29.8in /  1009.9hPa SSE 8.1mph /  13km/h 10.4mph /  16.7km/h 87.2% 0.07in /  1.8mm
04:09 50.5 °F /  10.3 °C 47.1 °F /  8.4 °C 29.8in /  1009.9hPa Sur 7.9mph /  12.7km/h 12.3mph /  19.8km/h 88% 0.07in /  1.8mm
04:14 50.5 °F /  10.3 °C 47.1 °F /  8.4 °C 29.8in /  1009.9hPa Sur 6.9mph /  11.1km/h 12.7mph /  20.4km/h 88% 0.06in /  1.6mm
04:19 50.4 °F /  10.2 °C 46.9 °F /  8.3 °C 29.8in /  1009.7hPa Sur 7.1mph /  11.5km/h 11.5mph /  18.5km/h 88% 0.05in /  1.3mm
04:24 50.4 °F /  10.2 °C 46.9 °F /  8.3 °C 29.8in /  1009.7hPa Sur 8.1mph /  13km/h 10.4mph /  16.7km/h 88% 0.04in /  1.1mm
04:29 50.4 °F /  10.2 °C 46.9 °F /  8.3 °C 29.8in /  1009.7hPa Sur 7.6mph /  12.3km/h 6.9mph /  11.1km/h 88% 0.04in /  1.1mm
04:34 50.4 °F /  10.2 °C 46.9 °F /  8.3 °C 29.8in /  1009.6hPa Sur 5.9mph /  9.5km/h 8.1mph /  13km/h 88% 0.03in /  0.8mm
04:39 50.4 °F /  10.2 °C 46.9 °F /  8.3 °C 29.8in /  1009.6hPa Sur 5.8mph /  9.3km/h 6.9mph /  11.1km/h 88% 0.03in /  0.8mm
04:44 50.4 °F /  10.2 °C 46.9 °F /  8.3 °C 29.8in /  1009.6hPa SSO 5.2mph /  8.4km/h 7.4mph /  11.9km/h 88% 0.03in /  0.8mm
04:49 50.4 °F /  10.2 °C 46.9 °F /  8.3 °C 29.8in /  1009.4hPa SSO 5.1mph /  8.2km/h 7.4mph /  11.9km/h 88% 0.02in /  0.5mm
04:54 50.5 °F /  10.3 °C 47.1 °F /  8.4 °C 29.8in /  1009.4hPa Sur 4.7mph /  7.6km/h 6.2mph /  10km/h 88% 0.02in /  0.5mm
04:59 50.5 °F /  10.3 °C 47.1 °F /  8.4 °C 29.8in /  1009.4hPa Sur 4.5mph /  7.2km/h 5.9mph /  9.5km/h 87.9% 0.01in /  0.3mm
05:04 50.7 °F /  10.4 °C 46.9 °F /  8.3 °C 29.8in /  1009.2hPa Sur 3.6mph /  5.8km/h 6.2mph /  10km/h 87% 0.01in /  0.3mm
05:09 50.7 °F /  10.4 °C 47.1 °F /  8.4 °C 29.8in /  1009.2hPa SSO 3.7mph /  5.9km/h 7.4mph /  11.9km/h 87% 0in /  0.0mm
05:14 51.1 °F /  10.6 °C 47.1 °F /  8.4 °C 29.8in /  1009.2hPa SSO 4mph /  6.4km/h 9.2mph /  14.8km/h 86.6% 0in /  0.0mm
05:19 51.1 °F /  10.6 °C 46.9 °F /  8.3 °C 29.8in /  1009.2hPa SSO 4.1mph /  6.6km/h 6.9mph /  11.1km/h 86% 0in /  0.0mm
05:24 51.1 °F /  10.6 °C 46.9 °F /  8.3 °C 29.8in /  1009.2hPa SO 4.7mph /  7.6km/h 6.2mph /  10km/h 85.8% 0in /  0.0mm
05:29 51.1 °F /  10.6 °C 46.8 °F /  8.2 °C 29.8in /  1009.2hPa SO 4.4mph /  7.1km/h 5.8mph /  9.3km/h 85% 0in /  0.0mm
05:34 51.1 °F /  10.6 °C 46.8 °F /  8.2 °C 29.8in /  1009.1hPa OSO 3.1mph /  5km/h 4.3mph /  6.9km/h 85% 0in /  0.0mm
05:39 51.1 °F /  10.6 °C 46.8 °F /  8.2 °C 29.8in /  1009.1hPa ONO 3mph /  4.8km/h 4.6mph /  7.4km/h 85% 0in /  0.0mm
05:44 51.1 °F /  10.6 °C 46.8 °F /  8.2 °C 29.8in /  1009.1hPa SO 2.4mph /  3.9km/h 5.8mph /  9.3km/h 85% 0in /  0.0mm
05:49 51.1 °F /  10.6 °C 46.9 °F /  8.3 °C 29.8in /  1009.1hPa SO 2.7mph /  4.3km/h 8.1mph /  13km/h 85.8% 0in /  0.0mm
05:54 51.1 °F /  10.6 °C 47.1 °F /  8.4 °C 29.8in /  1009.1hPa SSO 4mph /  6.4km/h 8.1mph /  13km/h 86% 0in /  0.0mm
05:59 51.3 °F /  10.7 °C 47.1 °F /  8.4 °C 29.8in /  1009.1hPa SO 4.2mph /  6.8km/h 9.2mph /  14.8km/h 85.5% 0in /  0.0mm
06:04 51.3 °F /  10.7 °C 46.9 °F /  8.3 °C 29.8in /  1008.9hPa SO 5.2mph /  8.4km/h 6.9mph /  11.1km/h 85% 0in /  0.0mm
06:09 51.4 °F /  10.8 °C 46.9 °F /  8.3 °C 29.8in /  1008.9hPa SO 5mph /  8.1km/h 8.1mph /  13km/h 84.8% 0in /  0.0mm
06:14 51.4 °F /  10.8 °C 46.8 °F /  8.2 °C 29.8in /  1008.9hPa SSO 4.3mph /  6.9km/h 8.1mph /  13km/h 84% 0in /  0.0mm
06:19 51.4 °F /  10.8 °C 46.8 °F /  8.2 °C 29.8in /  1008.6hPa SSE 4.3mph /  6.9km/h 6.4mph /  10.3km/h 84% 0in /  0.0mm
06:24 51.4 °F /  10.8 °C 46.8 °F /  8.2 °C 29.8in /  1008.6hPa Sur 4.3mph /  6.9km/h 9.2mph /  14.8km/h 84% 0in /  0.0mm
06:29 51.3 °F /  10.7 °C 46.9 °F /  8.3 °C 29.8in /  1008.6hPa Sur 4.5mph /  7.3km/h 8.5mph /  13.7km/h 85% 0in /  0.0mm
06:34 51.3 °F /  10.7 °C 46.8 °F /  8.2 °C 29.8in /  1008.5hPa SSO 5.4mph /  8.7km/h 10.7mph /  17.2km/h 85% 0in /  0.0mm
06:39 51.1 °F /  10.6 °C 46.9 °F /  8.3 °C 29.8in /  1008.5hPa SO 5.5mph /  8.9km/h 10.4mph /  16.7km/h 85.8% 0in /  0.0mm
06:44 51.1 °F /  10.6 °C 47.1 °F /  8.4 °C 29.8in /  1008.8hPa SO 6.2mph /  10km/h 8.1mph /  13km/h 85.9% 0in /  0.0mm
06:49 51.3 °F /  10.7 °C 47.1 °F /  8.4 °C 29.8in /  1008.8hPa SO 6mph /  9.7km/h 8.1mph /  13km/h 85.8% 0in /  0.0mm
06:54 51.3 °F /  10.7 °C 47.1 °F /  8.4 °C 29.8in /  1008.8hPa SO 5.2mph /  8.4km/h 6.9mph /  11.1km/h 85.7% 0in /  0.0mm
06:59 51.3 °F /  10.7 °C 46.9 °F /  8.3 °C 29.8in /  1008.8hPa SO 5mph /  8.1km/h 6.9mph /  11.1km/h 85% 0in /  0.0mm
07:04 51.3 °F /  10.7 °C 46.9 °F /  8.3 °C 29.8in /  1008.8hPa SO 4.3mph /  6.9km/h 6.9mph /  11.1km/h 85% 0in /  0.0mm
07:09 51.3 °F /  10.7 °C 46.9 °F /  8.3 °C 29.8in /  1008.8hPa SO 4.3mph /  7km/h 8.1mph /  13km/h 85% 0in /  0.0mm
07:14 51.4 °F /  10.8 °C 46.8 °F /  8.2 °C 29.8in /  1008.8hPa OSO 4.7mph /  7.6km/h 6.2mph /  10km/h 84.1% 0in /  0.0mm
07:19 51.4 °F /  10.8 °C 46.8 °F /  8.2 °C 29.8in /  1008.8hPa Oeste 4.6mph /  7.4km/h 5.9mph /  9.5km/h 84% 0in /  0.0mm
07:23 51.4 °F /  10.8 °C 46.8 °F /  8.2 °C 29.8in /  1008.8hPa Oeste 4mph /  6.4km/h 5.8mph /  9.3km/h 84% 0in /  0.0mm
07:29 51.4 °F /  10.8 °C 46.8 °F /  8.2 °C 29.8in /  1008.8hPa OSO 3.9mph /  6.3km/h 7.4mph /  11.9km/h 84% 0in /  0.0mm
07:34 51.3 °F /  10.7 °C 46.6 °F /  8.1 °C 29.8in /  1008.4hPa OSO 3.6mph /  5.8km/h 5.8mph /  9.3km/h 84% 0in /  0.0mm
07:39 51.3 °F /  10.7 °C 46.6 °F /  8.1 °C 29.8in /  1008.4hPa OSO 3.5mph /  5.7km/h 5.9mph /  9.5km/h 84% 0in /  0.0mm
07:44 51.1 °F /  10.6 °C 46.4 °F /  8 °C 29.8in /  1008.4hPa Oeste 3.1mph /  5km/h 10.4mph /  16.7km/h 84% 0in /  0.0mm
07:49 51.1 °F /  10.6 °C 46.2 °F /  7.9 °C 29.8in /  1008.3hPa Oeste 3.5mph /  5.7km/h 11.5mph /  18.5km/h 83.1% 0in /  0.0mm
07:54 51.3 °F /  10.7 °C 45.7 °F /  7.6 °C 29.8in /  1008.3hPa Oeste 5.4mph /  8.7km/h 9.2mph /  14.8km/h 81.3% 0in /  0.0mm
07:59 51.4 °F /  10.8 °C 45.3 °F /  7.4 °C 29.8in /  1008.4hPa OSO 5.3mph /  8.6km/h 8.1mph /  13km/h 79.5% 0in /  0.0mm
08:04 51.4 °F /  10.8 °C 45 °F /  7.2 °C 29.8in /  1008.4hPa SO 5.2mph /  8.4km/h 9.2mph /  14.8km/h 78% 0in /  0.0mm
08:09 51.6 °F /  10.9 °C 44.4 °F /  6.9 °C 29.8in /  1008.4hPa SO 5.2mph /  8.4km/h 9.2mph /  14.8km/h 76.4% 0in /  0.0mm
08:14 52 °F /  11.1 °C 44.2 °F /  6.8 °C 29.8in /  1008.5hPa SO 5.2mph /  8.4km/h 12.7mph /  20.4km/h 74.9% 0in /  0.0mm
08:19 52.2 °F /  11.2 °C 44.1 °F /  6.7 °C 29.8in /  1008.5hPa SSO 5.2mph /  8.4km/h 10.4mph /  16.7km/h 73.6% 0in /  0.0mm
08:24 52.3 °F /  11.3 °C 44.4 °F /  6.9 °C 29.8in /  1008.5hPa SSO 5.4mph /  8.7km/h 6.4mph /  10.3km/h 74.5% 0in /  0.0mm
08:29 52.2 °F /  11.2 °C 45 °F /  7.2 °C 29.8in /  1008.7hPa Sur 5.2mph /  8.4km/h 6.9mph /  11.1km/h 76.4% 0in /  0.0mm
08:34 52 °F /  11.1 °C 45.3 °F /  7.4 °C 29.8in /  1008.7hPa OSO 4.3mph /  6.9km/h 8.1mph /  13km/h 77.9% 0in /  0.0mm
08:39 51.6 °F /  10.9 °C 45.1 °F /  7.3 °C 29.8in /  1008.7hPa OSO 4.2mph /  6.8km/h 6.9mph /  11.1km/h 78.6% 0in /  0.0mm
08:44 51.4 °F /  10.8 °C 45.1 °F /  7.3 °C 29.8in /  1008.7hPa OSO 4mph /  6.4km/h 7.4mph /  11.9km/h 79% 0in /  0.0mm
08:49 51.4 °F /  10.8 °C 44.8 °F /  7.1 °C 29.8in /  1008.4hPa OSO 4mph /  6.5km/h 9.2mph /  14.8km/h 78.1% 0in /  0.0mm
08:54 51.4 °F /  10.8 °C 44.1 °F /  6.7 °C 29.8in /  1008.4hPa Oeste 4.3mph /  6.9km/h 10.7mph /  17.2km/h 75.5% 0in /  0.0mm
08:59 52 °F /  11.1 °C 43.3 °F /  6.3 °C 29.8in /  1008.6hPa ONO 4.8mph /  7.8km/h 13mph /  20.9km/h 72.1% 0in /  0.0mm
09:04 52.3 °F /  11.3 °C 42.8 °F /  6 °C 29.8in /  1008.6hPa ONO 6.9mph /  11.1km/h 12.7mph /  20.4km/h 70% 0in /  0.0mm
09:09 52.7 °F /  11.5 °C 42.6 °F /  5.9 °C 29.8in /  1008.6hPa ONO 7.1mph /  11.4km/h 12.7mph /  20.4km/h 68.9% 0in /  0.0mm
09:14 52.7 °F /  11.5 °C 42.4 °F /  5.8 °C 29.8in /  1008.7hPa Oeste 8.1mph /  13km/h 17.3mph /  27.8km/h 68% 0in /  0.0mm
09:19 52.7 °F /  11.5 °C 42.4 °F /  5.8 °C 29.8in /  1008.7hPa Oeste 8.3mph /  13.3km/h 17.3mph /  27.8km/h 68% 0in /  0.0mm
09:24 52.9 °F /  11.6 °C 42.3 °F /  5.7 °C 29.8in /  1008.7hPa ONO 9.2mph /  14.8km/h 17.3mph /  27.8km/h 67.3% 0in /  0.0mm
09:29 52.9 °F /  11.6 °C 42.3 °F /  5.7 °C 29.8in /  1008.7hPa ONO 9.6mph /  15.4km/h 17.5mph /  28.2km/h 67% 0in /  0.0mm
09:30 52.9 °F /  11.6 °C 42.3 °F /  5.7 °C 29.8in /  1008.7hPa Oeste 11.4mph /  18.3km/h 17.3mph /  27.8km/h 67% 0in /  0.0mm
09:39 52.9 °F /  11.6 °C 42.3 °F /  5.7 °C 29.8in /  1008.7hPa ONO 11.1mph /  17.9km/h 16.1mph /  25.9km/h 67% 0in /  0.0mm
09:44 52.9 °F /  11.6 °C 42.3 °F /  5.7 °C 29.8in /  1008.9hPa Oeste 9.7mph /  15.6km/h 16.1mph /  25.9km/h 67% 0in /  0.0mm
09:49 52.9 °F /  11.6 °C 42.1 °F /  5.6 °C 29.8in /  1008.9hPa Oeste 9.5mph /  15.3km/h 13.8mph /  22.2km/h 66.6% 0in /  0.0mm
09:54 52.9 °F /  11.6 °C 42.3 °F /  5.7 °C 29.8in /  1008.9hPa Oeste 8.5mph /  13.7km/h 11.5mph /  18.5km/h 66.9% 0in /  0.0mm
09:59 53.1 °F /  11.7 °C 42.3 °F /  5.7 °C 29.8in /  1009.0hPa OSO 7.8mph /  12.6km/h 11.5mph /  18.5km/h 67% 0in /  0.0mm
10:04 53.1 °F /  11.7 °C 42.1 °F /  5.6 °C 29.8in /  1009.0hPa SO 5.4mph /  8.7km/h 9.7mph /  15.6km/h 66.2% 0in /  0.0mm
10:09 53.1 °F /  11.7 °C 41.7 °F /  5.4 °C 29.8in /  1009.0hPa Oeste 5.6mph /  9km/h 15mph /  24.1km/h 65.3% 0in /  0.0mm
10:14 53.2 °F /  11.8 °C 41.7 °F /  5.4 °C 29.8in /  1009.0hPa Oeste 6.4mph /  10.3km/h 11.5mph /  18.5km/h 64.6% 0in /  0.0mm
10:19 53.4 °F /  11.9 °C 41.5 °F /  5.3 °C 29.8in /  1008.9hPa Oeste 6.5mph /  10.4km/h 12.7mph /  20.4km/h 64% 0in /  0.0mm
10:24 53.4 °F /  11.9 °C 41.2 °F /  5.1 °C 29.8in /  1008.9hPa Oeste 6.9mph /  11.1km/h 12.7mph /  20.4km/h 63.2% 0in /  0.0mm
10:29 53.4 °F /  11.9 °C 41.2 °F /  5.1 °C 29.8in /  1009.0hPa Oeste 6.8mph /  10.9km/h 13mph /  20.9km/h 63% 0in /  0.0mm
10:34 53.4 °F /  11.9 °C 40.8 °F /  4.9 °C 29.8in /  1009.0hPa Oeste 6.2mph /  10km/h 13mph /  20.9km/h 62.5% 0in /  0.0mm
10:39 53.6 °F /  12 °C 41 °F /  5 °C 29.8in /  1009.0hPa OSO 6.3mph /  10.2km/h 17.3mph /  27.8km/h 62.5% 0in /  0.0mm
10:44 53.6 °F /  12 °C 40.8 °F /  4.9 °C 29.8in /  1009.1hPa Oeste 6.9mph /  11.1km/h 11.8mph /  19km/h 62% 0in /  0.0mm
10:49 53.8 °F /  12.1 °C 41 °F /  5 °C 29.8in /  1009.1hPa Oeste 6.8mph /  10.9km/h 10.4mph /  16.7km/h 62% 0in /  0.0mm
10:54 53.8 °F /  12.1 °C 41 °F /  5 °C 29.8in /  1009.1hPa Oeste 6.2mph /  10km/h 10.7mph /  17.2km/h 62% 0in /  0.0mm
10:59 53.8 °F /  12.1 °C 40.6 °F /  4.8 °C 29.8in /  1009.4hPa ONO 6mph /  9.6km/h 9.2mph /  14.8km/h 61% 0in /  0.0mm
11:04 53.8 °F /  12.1 °C 40.6 °F /  4.8 °C 29.8in /  1009.4hPa Oeste 5.2mph /  8.4km/h 10.4mph /  16.7km/h 61.2% 0in /  0.0mm
11:09 54 °F /  12.2 °C 40.8 °F /  4.9 °C 29.8in /  1009.4hPa Oeste 5.3mph /  8.6km/h 13.8mph /  22.2km/h 61% 0in /  0.0mm
11:14 54 °F /  12.2 °C 40.8 °F /  4.9 °C 29.8in /  1009.5hPa ONO 6.2mph /  10km/h 9.7mph /  15.6km/h 61% 0in /  0.0mm
11:19 54 °F /  12.2 °C 40.8 °F /  4.9 °C 29.8in /  1009.5hPa Oeste 6.2mph /  9.9km/h 9.7mph /  15.6km/h 61% 0in /  0.0mm
11:24 54 °F /  12.2 °C 40.8 °F /  4.9 °C 29.8in /  1009.5hPa Oeste 5.9mph /  9.5km/h 11.8mph /  19km/h 61% 0in /  0.0mm
11:29 54 °F /  12.2 °C 40.8 °F /  4.9 °C 29.8in /  1009.5hPa Oeste 5.9mph /  9.5km/h 13mph /  20.9km/h 60.9% 0in /  0.0mm
11:34 54.1 °F /  12.3 °C 40.6 °F /  4.8 °C 29.8in /  1009.5hPa Oeste 5.9mph /  9.5km/h 18.5mph /  29.8km/h 60.1% 0in /  0.0mm
11:39 54.5 °F /  12.5 °C 39.9 °F /  4.4 °C 29.8in /  1009.5hPa Oeste 6.9mph /  11.1km/h 24.2mph /  38.9km/h 57.9% 0in /  0.0mm
11:44 54.9 °F /  12.7 °C 39.9 °F /  4.4 °C 29.8in /  1009.5hPa Oeste 11.4mph /  18.3km/h 21.9mph /  35.2km/h 57% 0in /  0.0mm
11:49 55 °F /  12.8 °C 39.6 °F /  4.2 °C 29.8in /  1009.4hPa ONO 11.8mph /  19km/h 23mph /  37km/h 56.1% 0in /  0.0mm
11:54 55.2 °F /  12.9 °C 39.7 °F /  4.3 °C 29.8in /  1009.4hPa ONO 13.7mph /  22km/h 18.4mph /  29.6km/h 56% 0in /  0.0mm
11:59 55.2 °F /  12.9 °C 39.7 °F /  4.3 °C 29.8in /  1009.5hPa Oeste 12.9mph /  20.7km/h 18.4mph /  29.6km/h 55.8% 0in /  0.0mm
12:04 55.4 °F /  13 °C 39.4 °F /  4.1 °C 29.8in /  1009.5hPa Oeste 10mph /  16.1km/h 20.7mph /  33.3km/h 54.6% 0in /  0.0mm
12:09 55.6 °F /  13.1 °C 39.4 °F /  4.1 °C 29.8in /  1009.5hPa ONO 10.1mph /  16.3km/h 21.3mph /  34.3km/h 54.2% 0in /  0.0mm
12:14 55.6 °F /  13.1 °C 39.2 °F /  4 °C 29.8in /  1009.5hPa ONO 10.7mph /  17.2km/h 20.7mph /  33.3km/h 53.9% 0in /  0.0mm
12:19 55.6 °F /  13.1 °C 39.2 °F /  4 °C 29.8in /  1009.5hPa Oeste 11mph /  17.7km/h 21.3mph /  34.3km/h 54% 0in /  0.0mm
12:24 55.6 °F /  13.1 °C 39.2 °F /  4 °C 29.8in /  1009.5hPa ONO 12.3mph /  19.8km/h 20.1mph /  32.3km/h 53.9% 0in /  0.0mm
12:29 55.6 °F /  13.1 °C 38.7 °F /  3.7 °C 29.8in /  1009.5hPa Oeste 12mph /  19.3km/h 20.7mph /  33.3km/h 53% 0in /  0.0mm
12:34 55.8 °F /  13.2 °C 38.8 °F /  3.8 °C 29.8in /  1009.3hPa ONO 10.7mph /  17.2km/h 21.3mph /  34.3km/h 53% 0in /  0.0mm
12:39 55.8 °F /  13.2 °C 38.3 °F /  3.5 °C 29.8in /  1009.3hPa Oeste 10.9mph /  17.5km/h 21.9mph /  35.2km/h 51.7% 0in /  0.0mm
12:44 55.9 °F /  13.3 °C 38.1 °F /  3.4 °C 29.8in /  1009.3hPa ONO 11.8mph /  19km/h 25.6mph /  41.2km/h 50.9% 0in /  0.0mm
12:49 56.1 °F /  13.4 °C 37.8 °F /  3.2 °C 29.8in /  1009.3hPa ONO 12.2mph /  19.7km/h 25.3mph /  40.7km/h 50% 0in /  0.0mm
12:54 56.3 °F /  13.5 °C 37.8 °F /  3.2 °C 29.8in /  1009.3hPa ONO 14.5mph /  23.3km/h 22.3mph /  35.9km/h 50% 0in /  0.0mm
12:59 56.5 °F /  13.6 °C 37.6 °F /  3.1 °C 29.8in /  1009.3hPa ONO 14.4mph /  23.1km/h 26.5mph /  42.6km/h 49.2% 0in /  0.0mm
13:04 56.7 °F /  13.7 °C 37.8 °F /  3.2 °C 29.8in /  1009.1hPa ONO 14mph /  22.5km/h 25.3mph /  40.7km/h 49% 0in /  0.0mm
13:09 56.7 °F /  13.7 °C 37.6 °F /  3.1 °C 29.8in /  1009.1hPa ONO 13.9mph /  22.4km/h 25.3mph /  40.7km/h 48.7% 0in /  0.0mm
13:14 56.7 °F /  13.7 °C 37.2 °F /  2.9 °C 29.8in /  1009.1hPa Oeste 13.7mph /  22km/h 24.2mph /  38.9km/h 48% 0in /  0.0mm
13:19 56.7 °F /  13.7 °C 37.6 °F /  3.1 °C 29.8in /  1008.9hPa ONO 13.5mph /  21.7km/h 18.4mph /  29.6km/h 48.9% 0in /  0.0mm
13:24 56.7 °F /  13.7 °C 37.4 °F /  3 °C 29.8in /  1008.9hPa ONO 12.5mph /  20.1km/h 24.2mph /  38.9km/h 48.5% 0in /  0.0mm
13:29 56.8 °F /  13.8 °C 37.4 °F /  3 °C 29.8in /  1008.9hPa ONO 12.7mph /  20.4km/h 25.6mph /  41.2km/h 48% 0in /  0.0mm
13:34 57 °F /  13.9 °C 37.2 °F /  2.9 °C 29.8in /  1008.9hPa ONO 13.7mph /  22km/h 19.6mph /  31.5km/h 47.5% 0in /  0.0mm
13:39 57.4 °F /  14.1 °C 37.2 °F /  2.9 °C 29.8in /  1008.9hPa ONO 13.4mph /  21.6km/h 18.5mph /  29.8km/h 46.9% 0in /  0.0mm
13:44 57.6 °F /  14.2 °C 37 °F /  2.8 °C 29.8in /  1008.9hPa ONO 12.3mph /  19.8km/h 20.8mph /  33.5km/h 46.2% 0in /  0.0mm
13:49 57.7 °F /  14.3 °C 37 °F /  2.8 °C 29.8in /  1008.9hPa ONO 12.2mph /  19.6km/h 21.3mph /  34.3km/h 46% 0in /  0.0mm
13:54 58.1 °F /  14.5 °C 37.4 °F /  3 °C 29.8in /  1008.9hPa ONO 11.8mph /  19km/h 20.7mph /  33.3km/h 46% 0in /  0.0mm
13:59 58.3 °F /  14.6 °C 37 °F /  2.8 °C 29.8in /  1008.9hPa ONO 12.1mph /  19.4km/h 29.1mph /  46.8km/h 45.1% 0in /  0.0mm
14:04 58.1 °F /  14.5 °C 36.9 °F /  2.7 °C 29.8in /  1008.8hPa ONO 13mph /  20.9km/h 28.8mph /  46.3km/h 44.8% 0in /  0.0mm
14:09 57.9 °F /  14.4 °C 37 °F /  2.8 °C 29.8in /  1008.8hPa ONO 13.2mph /  21.2km/h 20.8mph /  33.5km/h 45.7% 0in /  0.0mm
14:14 57.9 °F /  14.4 °C 37 °F /  2.8 °C 29.8in /  1008.8hPa ONO 14mph /  22.5km/h 21.9mph /  35.2km/h 45.8% 0in /  0.0mm
14:19 57.9 °F /  14.4 °C 36.9 °F /  2.7 °C 29.8in /  1008.8hPa ONO 13.5mph /  21.8km/h 24.6mph /  39.6km/h 45.3% 0in /  0.0mm
14:24 58.1 °F /  14.5 °C 36.9 °F /  2.7 °C 29.8in /  1008.8hPa ONO 11.4mph /  18.3km/h 20.8mph /  33.5km/h 45.1% 0in /  0.0mm
14:29 58.5 °F /  14.7 °C 37 °F /  2.8 °C 29.8in /  1008.9hPa ONO 11.6mph /  18.6km/h 20.7mph /  33.3km/h 45% 0in /  0.0mm
14:34 58.5 °F /  14.7 °C 37.2 °F /  2.9 °C 29.8in /  1008.9hPa ONO 12.3mph /  19.8km/h 20.7mph /  33.3km/h 45% 0in /  0.0mm
14:39 58.5 °F /  14.7 °C 37.4 °F /  3 °C 29.8in /  1008.9hPa ONO 12.3mph /  19.8km/h 24.8mph /  39.9km/h 45.2% 0in /  0.0mm
14:44 58.6 °F /  14.8 °C 37.4 °F /  3 °C 29.8in /  1009.1hPa Oeste 12.3mph /  19.8km/h 25.3mph /  40.7km/h 45% 0in /  0.0mm
14:49 58.8 °F /  14.9 °C 37 °F /  2.8 °C 29.8in /  1009.1hPa Oeste 12.9mph /  20.8km/h 25.3mph /  40.7km/h 44% 0in /  0.0mm
14:54 58.8 °F /  14.9 °C 37 °F /  2.8 °C 29.8in /  1009.1hPa ONO 15.6mph /  25.1km/h 25.3mph /  40.7km/h 44% 0in /  0.0mm
14:59 59.2 °F /  15.1 °C 37 °F /  2.8 °C 29.8in /  1009.1hPa ONO 15.3mph /  24.6km/h 25.3mph /  40.7km/h 43.8% 0in /  0.0mm
15:04 59.4 °F /  15.2 °C 36.9 °F /  2.7 °C 29.8in /  1009.1hPa Oeste 14mph /  22.5km/h 27.9mph /  44.9km/h 43% 0in /  0.0mm
15:09 59.4 °F /  15.2 °C 37 °F /  2.8 °C 29.8in /  1009.1hPa ONO 14.1mph /  22.7km/h 25.6mph /  41.2km/h 43.4% 0in /  0.0mm
15:14 59.4 °F /  15.2 °C 37 °F /  2.8 °C 29.8in /  1009.3hPa Oeste 14.7mph /  23.7km/h 19mph /  30.6km/h 43.3% 0in /  0.0mm
15:19 59.4 °F /  15.2 °C 36.7 °F /  2.6 °C 29.8in /  1009.3hPa Oeste 14.3mph /  23km/h 24.2mph /  38.9km/h 43% 0in /  0.0mm
15:24 59.2 °F /  15.1 °C 36.1 °F /  2.3 °C 29.8in /  1009.3hPa ONO 12.5mph /  20.1km/h 26.5mph /  42.6km/h 42.2% 0in /  0.0mm
15:29 59.2 °F /  15.1 °C 36.3 °F /  2.4 °C 29.8in /  1009.4hPa ONO 12.7mph /  20.4km/h 21.3mph /  34.3km/h 42.3% 0in /  0.0mm
15:34 59.2 °F /  15.1 °C 36.1 °F /  2.3 °C 29.8in /  1009.4hPa Oeste 13.7mph /  22km/h 21.3mph /  34.3km/h 42% 0in /  0.0mm
15:39 59.2 °F /  15.1 °C 36.3 °F /  2.4 °C 29.8in /  1009.4hPa Oeste 13.3mph /  21.4km/h 23.7mph /  38.1km/h 42.5% 0in /  0.0mm
15:44 59.2 °F /  15.1 °C 36.3 °F /  2.4 °C 29.8in /  1009.4hPa Oeste 11.4mph /  18.3km/h 24.2mph /  38.9km/h 42.5% 0in /  0.0mm
15:49 59.2 °F /  15.1 °C 36.3 °F /  2.4 °C 29.8in /  1009.3hPa ONO 11.4mph /  18.3km/h 19.7mph /  31.7km/h 42.2% 0in /  0.0mm
15:54 59.4 °F /  15.2 °C 36.3 °F /  2.4 °C 29.8in /  1009.3hPa Oeste 11.4mph /  18.3km/h 23mph /  37km/h 42.4% 0in /  0.0mm
15:59 59.4 °F /  15.2 °C 36.1 °F /  2.3 °C 29.8in /  1009.5hPa ONO 11.9mph /  19.2km/h 24.6mph /  39.6km/h 42% 0in /  0.0mm
16:04 59.2 °F /  15.1 °C 36.3 °F /  2.4 °C 29.8in /  1009.5hPa ONO 13.7mph /  22km/h 25.6mph /  41.2km/h 42.3% 0in /  0.0mm
16:09 59.2 °F /  15.1 °C 36.1 °F /  2.3 °C 29.8in /  1009.5hPa ONO 14mph /  22.6km/h 29.1mph /  46.8km/h 42% 0in /  0.0mm
16:14 59 °F /  15 °C 36 °F /  2.2 °C 29.8in /  1009.7hPa ONO 15.6mph /  25.1km/h 24.2mph /  38.9km/h 42.2% 0in /  0.0mm
16:19 59 °F /  15 °C 36.3 °F /  2.4 °C 29.8in /  1009.7hPa Oeste 15.1mph /  24.3km/h 26.1mph /  42km/h 42.8% 0in /  0.0mm
16:24 59 °F /  15 °C 36 °F /  2.2 °C 29.8in /  1009.7hPa Oeste 12.3mph /  19.8km/h 28.8mph /  46.3km/h 42% 0in /  0.0mm
16:29 59 °F /  15 °C 36 °F /  2.2 °C 29.8in /  1009.9hPa Oeste 13mph /  21km/h 27.3mph /  43.9km/h 42% 0in /  0.0mm
16:34 59 °F /  15 °C 36 °F /  2.2 °C 29.8in /  1009.9hPa ONO 16.3mph /  26.2km/h 27.6mph /  44.4km/h 42% 0in /  0.0mm
16:39 58.8 °F /  14.9 °C 35.8 °F /  2.1 °C 29.8in /  1009.9hPa ONO 16.2mph /  26km/h 26.8mph /  43.1km/h 42% 0in /  0.0mm
16:44 58.8 °F /  14.9 °C 35.6 °F /  2 °C 29.8in /  1009.9hPa ONO 15.6mph /  25.1km/h 23mph /  37km/h 41.5% 0in /  0.0mm
16:49 58.8 °F /  14.9 °C 35.8 °F /  2.1 °C 29.8in /  1009.9hPa ONO 15.4mph /  24.8km/h 23.5mph /  37.8km/h 41.8% 0in /  0.0mm
16:54 58.8 °F /  14.9 °C 35.4 °F /  1.9 °C 29.8in /  1009.9hPa ONO 14.5mph /  23.3km/h 23mph /  37km/h 41.5% 0in /  0.0mm
16:59 58.8 °F /  14.9 °C 35.8 °F /  2.1 °C 29.8in /  1010.2hPa Oeste 14.3mph /  23km/h 24.2mph /  38.9km/h 41.9% 0in /  0.0mm
17:04 58.6 °F /  14.8 °C 35.4 °F /  1.9 °C 29.8in /  1010.2hPa ONO 13.7mph /  22km/h 25.6mph /  41.2km/h 41.8% 0in /  0.0mm
17:09 58.5 °F /  14.7 °C 35.2 °F /  1.8 °C 29.8in /  1010.2hPa ONO 13.9mph /  22.3km/h 26.5mph /  42.6km/h 41.7% 0in /  0.0mm
17:14 58.5 °F /  14.7 °C 35.4 °F /  1.9 °C 29.8in /  1010.4hPa ONO 14.7mph /  23.7km/h 21.9mph /  35.2km/h 41.9% 0in /  0.0mm
17:19 58.5 °F /  14.7 °C 35.2 °F /  1.8 °C 29.8in /  1010.4hPa Oeste 14.2mph /  22.9km/h 23mph /  37km/h 41.6% 0in /  0.0mm
17:24 58.5 °F /  14.7 °C 34.7 °F /  1.5 °C 29.8in /  1010.4hPa ONO 12.3mph /  19.8km/h 21.9mph /  35.2km/h 41% 0in /  0.0mm
17:29 58.3 °F /  14.6 °C 34.7 °F /  1.5 °C 29.8in /  1010.7hPa ONO 12.3mph /  19.8km/h 19mph /  30.6km/h 41% 0in /  0.0mm
17:34 58.1 °F /  14.5 °C 34.5 °F /  1.4 °C 29.8in /  1010.7hPa Oeste 12.5mph /  20.1km/h 20.7mph /  33.3km/h 41% 0in /  0.0mm
17:39 57.9 °F /  14.4 °C 34.3 °F /  1.3 °C 29.8in /  1010.7hPa Oeste 12.1mph /  19.4km/h 16.3mph /  26.2km/h 41.1% 0in /  0.0mm
17:44 57.7 °F /  14.3 °C 34.5 °F /  1.4 °C 29.9in /  1010.9hPa Oeste 10.2mph /  16.4km/h 17.3mph /  27.8km/h 41.5% 0in /  0.0mm
17:49 57.6 °F /  14.2 °C 34.3 °F /  1.3 °C 29.9in /  1010.9hPa Oeste 10.3mph /  16.6km/h 25.3mph /  40.7km/h 41.4% 0in /  0.0mm
17:54 57.6 °F /  14.2 °C 34.3 °F /  1.3 °C 29.9in /  1010.9hPa ONO 10.7mph /  17.2km/h 15mph /  24.1km/h 41.5% 0in /  0.0mm
17:59 57.4 °F /  14.1 °C 34.5 °F /  1.4 °C 29.9in /  1011.1hPa Oeste 10.4mph /  16.7km/h 16.3mph /  26.2km/h 42% 0in /  0.0mm
18:04 57.2 °F /  14 °C 34.3 °F /  1.3 °C 29.9in /  1011.1hPa ONO 9.2mph /  14.8km/h 15mph /  24.1km/h 42% 0in /  0.0mm
18:09 57 °F /  13.9 °C 34.2 °F /  1.2 °C 29.9in /  1011.1hPa Oeste 8.9mph /  14.3km/h 13.7mph /  22km/h 42% 0in /  0.0mm
18:14 56.8 °F /  13.8 °C 34 °F /  1.1 °C 29.9in /  1011.5hPa Oeste 7.4mph /  11.9km/h 15.6mph /  25.1km/h 42% 0in /  0.0mm
18:19 56.8 °F /  13.8 °C 34 °F /  1.1 °C 29.9in /  1011.5hPa Oeste 7.6mph /  12.3km/h 16.1mph /  25.9km/h 42% 0in /  0.0mm
18:24 56.8 °F /  13.8 °C 34 °F /  1.1 °C 29.9in /  1011.5hPa Oeste 8.7mph /  14km/h 16.1mph /  25.9km/h 42% 0in /  0.0mm
18:29 56.8 °F /  13.8 °C 34 °F /  1.1 °C 29.9in /  1011.7hPa Oeste 8.5mph /  13.7km/h 11.5mph /  18.5km/h 42% 0in /  0.0mm
18:34 56.7 °F /  13.7 °C 33.8 °F /  1 °C 29.9in /  1011.7hPa Oeste 7.6mph /  12.2km/h 12.7mph /  20.4km/h 42% 0in /  0.0mm
18:39 56.5 °F /  13.6 °C 33.6 °F /  0.9 °C 29.9in /  1011.7hPa Oeste 7.3mph /  11.7km/h 9.2mph /  14.8km/h 42% 0in /  0.0mm
18:44 56.5 °F /  13.6 °C 34 °F /  1.1 °C 29.9in /  1012.0hPa OSO 5.9mph /  9.5km/h 7.4mph /  11.9km/h 42.6% 0in /  0.0mm
18:49 56.1 °F /  13.4 °C 34 °F /  1.1 °C 29.9in /  1012.0hPa OSO 5.7mph /  9.1km/h 9.7mph /  15.6km/h 43% 0in /  0.0mm
18:54 55.9 °F /  13.3 °C 33.8 °F /  1 °C 29.9in /  1012.0hPa Oeste 4.7mph /  7.6km/h 13.8mph /  22.2km/h 43% 0in /  0.0mm
18:59 55.9 °F /  13.3 °C 33.6 °F /  0.9 °C 29.9in /  1012.2hPa Oeste 5.2mph /  8.3km/h 14mph /  22.5km/h 43% 0in /  0.0mm
19:04 55.9 °F /  13.3 °C 33.6 °F /  0.9 °C 29.9in /  1012.2hPa Oeste 6.9mph /  11.1km/h 15mph /  24.1km/h 43% 0in /  0.0mm
19:09 55.9 °F /  13.3 °C 33.8 °F /  1 °C 29.9in /  1012.2hPa Oeste 7.2mph /  11.6km/h 17mph /  27.4km/h 43% 0in /  0.0mm
19:14 56.1 °F /  13.4 °C 34 °F /  1.1 °C 29.9in /  1012.6hPa OSO 8.5mph /  13.7km/h 17.3mph /  27.8km/h 43% 0in /  0.0mm
19:19 56.1 °F /  13.4 °C 33.8 °F /  1 °C 29.9in /  1012.6hPa OSO 8.3mph /  13.4km/h 10.4mph /  16.7km/h 43% 0in /  0.0mm
19:24 55.9 °F /  13.3 °C 33.6 °F /  0.9 °C 29.9in /  1012.6hPa Oeste 7.4mph /  11.9km/h 11.8mph /  19km/h 43% 0in /  0.0mm
19:29 55.9 °F /  13.3 °C 33.6 °F /  0.9 °C 29.9in /  1012.9hPa Oeste 7.2mph /  11.6km/h 14mph /  22.5km/h 43% 0in /  0.0mm
19:34 55.8 °F /  13.2 °C 33.6 °F /  0.9 °C 29.9in /  1012.9hPa OSO 6.2mph /  10km/h 11.2mph /  18km/h 43% 0in /  0.0mm
19:39 55.8 °F /  13.2 °C 33.6 °F /  0.9 °C 29.9in /  1012.9hPa OSO 6.2mph /  10km/h 11.8mph /  19km/h 43% 0in /  0.0mm
19:44 55.8 °F /  13.2 °C 33.6 °F /  0.9 °C 29.9in /  1013.2hPa OSO 6.2mph /  10km/h 13mph /  20.9km/h 43% 0in /  0.0mm
19:49 55.8 °F /  13.2 °C 33.6 °F /  0.9 °C 29.9in /  1013.2hPa OSO 6.2mph /  10km/h 13.7mph /  22km/h 43% 0in /  0.0mm
19:54 55.6 °F /  13.1 °C 33.4 °F /  0.8 °C 29.9in /  1013.2hPa Oeste 6.2mph /  10km/h 13.8mph /  22.2km/h 43% 0in /  0.0mm
19:59 55.6 °F /  13.1 °C 33.4 °F /  0.8 °C 29.9in /  1013.4hPa Oeste 6.5mph /  10.4km/h 17.3mph /  27.8km/h 43% 0in /  0.0mm
20:04 55.6 °F /  13.1 °C 33.4 °F /  0.8 °C 29.9in /  1013.4hPa Oeste 7.6mph /  12.2km/h 15mph /  24.1km/h 43% 0in /  0.0mm
20:09 55.6 °F /  13.1 °C 33.3 °F /  0.7 °C 29.9in /  1013.4hPa Oeste 7.6mph /  12.2km/h 13.5mph /  21.7km/h 42.9% 0in /  0.0mm
20:14 55.2 °F /  12.9 °C 32.9 °F /  0.5 °C 29.9in /  1013.7hPa Oeste 7.6mph /  12.2km/h 13.8mph /  22.2km/h 42.6% 0in /  0.0mm
20:19 55.2 °F /  12.9 °C 32.7 °F /  0.4 °C 29.9in /  1013.7hPa ONO 7.5mph /  12km/h 10.7mph /  17.2km/h 42.3% 0in /  0.0mm
20:24 55 °F /  12.8 °C 32.9 °F /  0.5 °C 29.9in /  1013.7hPa ONO 6.9mph /  11.1km/h 10.4mph /  16.7km/h 42.8% 0in /  0.0mm
20:29 55 °F /  12.8 °C 32.9 °F /  0.5 °C 29.9in /  1014.0hPa ONO 6.9mph /  11.1km/h 12.7mph /  20.4km/h 43% 0in /  0.0mm
20:34 54.9 °F /  12.7 °C 32.7 °F /  0.4 °C 29.9in /  1014.0hPa Oeste 6.9mph /  11.1km/h 10.4mph /  16.7km/h 43% 0in /  0.0mm
20:39 54.7 °F /  12.6 °C 32.7 °F /  0.4 °C 29.9in /  1014.0hPa Oeste 6.8mph /  11km/h 15.6mph /  25.1km/h 43% 0in /  0.0mm
20:44 54.9 °F /  12.7 °C 32.7 °F /  0.4 °C 30in /  1014.2hPa Oeste 6.4mph /  10.3km/h 16.1mph /  25.9km/h 43% 0in /  0.0mm
20:49 54.9 °F /  12.7 °C 32.4 °F /  0.2 °C 30in /  1014.2hPa Oeste 6.9mph /  11.1km/h 19.7mph /  31.7km/h 42.1% 0in /  0.0mm
20:54 54.9 °F /  12.7 °C 32.2 °F /  0.1 °C 30in /  1014.2hPa ONO 9.2mph /  14.8km/h 23.5mph /  37.8km/h 42% 0in /  0.0mm
20:59 54.9 °F /  12.7 °C 32.2 °F /  0.1 °C 30in /  1014.4hPa ONO 9.2mph /  14.8km/h 23mph /  37km/h 42% 0in /  0.0mm
21:04 55 °F /  12.8 °C 32.4 °F /  0.2 °C 30in /  1014.4hPa ONO 9.2mph /  14.8km/h 19.6mph /  31.5km/h 42% 0in /  0.0mm
21:09 55 °F /  12.8 °C 32.4 °F /  0.2 °C 30in /  1014.4hPa ONO 9.6mph /  15.4km/h 19.7mph /  31.7km/h 42% 0in /  0.0mm
21:14 55 °F /  12.8 °C 31.8 °F /  -0.1 °C 30in /  1014.7hPa Oeste 11.2mph /  18km/h 19.6mph /  31.5km/h 41.2% 0in /  0.0mm
21:19 55 °F /  12.8 °C 31.8 °F /  -0.1 °C 30in /  1014.7hPa Oeste 11.3mph /  18.2km/h 23.5mph /  37.8km/h 41% 0in /  0.0mm
21:24 55 °F /  12.8 °C 31.6 °F /  -0.2 °C 30in /  1014.7hPa Oeste 11.8mph /  19km/h 20.8mph /  33.5km/h 41% 0in /  0.0mm
21:29 55 °F /  12.8 °C 31.6 °F /  -0.2 °C 30in /  1015.0hPa Oeste 11.8mph /  19km/h 20.7mph /  33.3km/h 41% 0in /  0.0mm
21:34 55 °F /  12.8 °C 31.8 °F /  -0.1 °C 30in /  1015.0hPa ONO 11.8mph /  19km/h 18.5mph /  29.8km/h 41.2% 0in /  0.0mm
21:39 54.9 °F /  12.7 °C 31.6 °F /  -0.2 °C 30in /  1015.0hPa ONO 11.9mph /  19.1km/h 22.3mph /  35.9km/h 41.1% 0in /  0.0mm
21:44 55 °F /  12.8 °C 31.6 °F /  -0.2 °C 30in /  1015.2hPa ONO 12.3mph /  19.8km/h 23mph /  37km/h 41% 0in /  0.0mm
21:49 54.9 °F /  12.7 °C 31.6 °F /  -0.2 °C 30in /  1015.2hPa ONO 12.7mph /  20.5km/h 23.5mph /  37.8km/h 41% 0in /  0.0mm
21:54 54.9 °F /  12.7 °C 31.6 °F /  -0.2 °C 30in /  1015.2hPa ONO 14.7mph /  23.7km/h 20.7mph /  33.3km/h 41.2% 0in /  0.0mm
21:59 54.7 °F /  12.6 °C 32 °F /  0 °C 30in /  1015.2hPa ONO 14.2mph /  22.8km/h 22.5mph /  36.2km/h 42% 0in /  0.0mm
22:04 54.5 °F /  12.5 °C 32 °F /  0 °C 30in /  1015.2hPa ONO 12.5mph /  20.1km/h 23.5mph /  37.8km/h 42% 0in /  0.0mm
22:09 54.3 °F /  12.4 °C 31.8 °F /  -0.1 °C 30in /  1015.2hPa ONO 12.9mph /  20.7km/h 25.6mph /  41.2km/h 42% 0in /  0.0mm
22:14 54.1 °F /  12.3 °C 32 °F /  0 °C 30in /  1015.4hPa ONO 14.7mph /  23.7km/h 21.9mph /  35.2km/h 42.7% 0in /  0.0mm
22:19 54.1 °F /  12.3 °C 32.2 °F /  0.1 °C 30in /  1015.4hPa ONO 14.3mph /  23km/h 20.7mph /  33.3km/h 43% 0in /  0.0mm
22:24 54.1 °F /  12.3 °C 31.8 °F /  -0.1 °C 30in /  1015.4hPa ONO 12.5mph /  20.1km/h 23mph /  37km/h 42.4% 0in /  0.0mm
22:29 54.3 °F /  12.4 °C 31.6 °F /  -0.2 °C 30in /  1015.5hPa Oeste 12.7mph /  20.5km/h 23mph /  37km/h 42% 0in /  0.0mm
22:34 54.1 °F /  12.3 °C 32.2 °F /  0.1 °C 30in /  1015.5hPa ONO 13.7mph /  22km/h 22.3mph /  35.9km/h 43% 0in /  0.0mm
22:39 54.1 °F /  12.3 °C 32.2 °F /  0.1 °C 30in /  1015.5hPa ONO 13.7mph /  22km/h 21.9mph /  35.2km/h 43% 0in /  0.0mm
22:44 54 °F /  12.2 °C 32 °F /  0 °C 30in /  1015.5hPa ONO 13.5mph /  21.7km/h 23mph /  37km/h 43% 0in /  0.0mm
22:45 54 °F /  12.2 °C 32 °F /  0 °C 30in /  1015.5hPa Oeste 13.5mph /  21.7km/h 12.7mph /  20.4km/h 43% 0in /  0.0mm
22:54 53.8 °F /  12.1 °C 31.8 °F /  -0.1 °C 30in /  1015.5hPa Oeste 12.3mph /  19.8km/h 24.2mph /  38.9km/h 43% 0in /  0.0mm
22:59 53.8 °F /  12.1 °C 31.8 °F /  -0.1 °C 30in /  1015.9hPa ONO 12.2mph /  19.6km/h 21.9mph /  35.2km/h 43% 0in /  0.0mm
23:04 53.8 °F /  12.1 °C 31.8 °F /  -0.1 °C 30in /  1015.9hPa Oeste 11.8mph /  19km/h 19mph /  30.6km/h 43% 0in /  0.0mm
23:09 53.8 °F /  12.1 °C 31.1 °F /  -0.5 °C 30in /  1015.9hPa Oeste 11.9mph /  19.1km/h 24.6mph /  39.6km/h 41.9% 0in /  0.0mm
23:14 54 °F /  12.2 °C 30.7 °F /  -0.7 °C 30in /  1016.1hPa ONO 12.3mph /  19.8km/h 24.2mph /  38.9km/h 41.1% 0in /  0.0mm
23:19 53.8 °F /  12.1 °C 30.9 °F /  -0.6 °C 30in /  1016.1hPa ONO 12.4mph /  20km/h 20.7mph /  33.3km/h 41.6% 0in /  0.0mm
23:24 53.4 °F /  11.9 °C 30.9 °F /  -0.6 °C 30in /  1016.1hPa ONO 13mph /  20.9km/h 19.6mph /  31.5km/h 42% 0in /  0.0mm
23:29 53.2 °F /  11.8 °C 30.7 °F /  -0.7 °C 30in /  1016.4hPa ONO 12.7mph /  20.5km/h 20.7mph /  33.3km/h 42% 0in /  0.0mm
23:34 53.1 °F /  11.7 °C 30.6 °F /  -0.8 °C 30in /  1016.4hPa ONO 11.4mph /  18.3km/h 23mph /  37km/h 42% 0in /  0.0mm
23:39 53.1 °F /  11.7 °C 30.9 °F /  -0.6 °C 30in /  1016.4hPa ONO 11.5mph /  18.5km/h 23mph /  37km/h 42.9% 0in /  0.0mm
23:44 52.7 °F /  11.5 °C 30.7 °F /  -0.7 °C 30in /  1017.0hPa ONO 11.8mph /  19km/h 18.4mph /  29.6km/h 43% 0in /  0.0mm
23:49 52.5 °F /  11.4 °C 30.6 °F /  -0.8 °C 30in /  1017.0hPa Oeste 11.6mph /  18.6km/h 17.3mph /  27.8km/h 43% 0in /  0.0mm
23:54 52.3 °F /  11.3 °C 30.6 °F /  -0.8 °C 30in /  1017.0hPa ONO 10.2mph /  16.4km/h 15mph /  24.1km/h 43% 0in /  0.0mm
23:59 52.2 °F /  11.2 °C 30.4 °F /  -0.9 °C 30in /  1017.2hPa ONO 10.1mph /  16.3km/h 20.7mph /  33.3km/h 43% 0in /  0.0mm
Murcia-Puente Tocinos, Espa?a
Compliments of Weather Underground - 3.25 mb

La estación de MeteoMurcia.com, publica sus datos en los siguientes proyectos:

Weather Underground PWS IMURCIAP2 Meteoclimatic www.awekas.at

W3Counter
Web Analytics